This is the latest recevied weather packets stored in our database for station/object K6CED. If no packets are shown the sender has not sent any weather packets the latest 10 day(s).
| Time | Temp. | Humidity | Pressure | Rain* | Wind** | Luminosity | Snow |
|---|---|---|---|---|---|---|---|
| 1787680922 | 35° C | 35% | 1017.4 hPa | 0 mm | - | 769 W/m² | - |
| 1787680618 | 33.89° C | 34% | 1017.5 hPa | 0 mm | - | 762 W/m² | - |
| 1787680316 | 33.89° C | 34% | 1017.5 hPa | 0 mm | - | 753 W/m² | - |
| 1787680016 | 33.89° C | 35% | 1017.7 hPa | 0 mm | - | 745 W/m² | - |
| 1787679715 | 33.89° C | 35% | 1017.5 hPa | 0 mm | - | 734 W/m² | - |
| 1787679410 | 32.78° C | 37% | 1017.6 hPa | 0 mm | - | 720 W/m² | - |
| 1787679106 | 32.78° C | 37% | 1017.7 hPa | 0 mm | - | 708 W/m² | - |
| 1787678806 | 32.78° C | 38% | 1017.5 hPa | 0 mm | - | 696 W/m² | - |
| 1787678500 | 32.22° C | 38% | 1017.6 hPa | 0 mm | - | 683 W/m² | - |
| 1787678195 | 32.78° C | 35% | 1017.6 hPa | 0 mm | - | 671 W/m² | - |
| 1787677890 | 32.22° C | 35% | 1017.7 hPa | 0 mm | - | 658 W/m² | - |
| 1787677590 | 31.11° C | 38% | 1017.9 hPa | 0 mm | - | 638 W/m² | - |
| 1787677289 | 31.11° C | 38% | 1017.6 hPa | 0 mm | - | 629 W/m² | - |
| 1787676988 | 31.67° C | 38% | 1017.8 hPa | 0 mm | - | 611 W/m² | - |
| 1787676684 | 30.56° C | 44% | 1017.8 hPa | 0 mm | - | 589 W/m² | - |
| 1787676380 | 30° C | 44% | 1017.8 hPa | 0 mm | - | 571 W/m² | - |
| 1787676076 | 30.56° C | 44% | 1017.6 hPa | 0 mm | - | 554 W/m² | - |
| 1787675772 | 30.56° C | 42% | 1017.8 hPa | 0 mm | - | 541 W/m² | - |
| 1787675467 | 30° C | 41% | 1017.7 hPa | 0 mm | - | 529 W/m² | - |
| 1787675165 | 29.44° C | 43% | 1017.6 hPa | 0 mm | - | 519 W/m² | - |
| 1787674860 | 29.44° C | 44% | 1017.8 hPa | 0 mm | - | 505 W/m² | - |
| 1787674555 | 30° C | 42% | 1017.6 hPa | 0 mm | - | 493 W/m² | - |
| 1787674250 | 28.89° C | 45% | 1017.5 hPa | 0 mm | - | 333 W/m² | - |
| 1787673950 | 30° C | 44% | 1017.6 hPa | 0 mm | - | 458 W/m² | - |
| 1787673646 | 29.44° C | 44% | 1017.7 hPa | 0 mm | - | 441 W/m² | - |
* Rain latest hour (hover to see other rain measurements)
** Current wind speed in m/s (hover to see current wind gust speed)